Terminal Aerodrome Forecast
Issued by NWS Melbourne, FL

Home | Current Version | Previous Version | Text Only | Print | Product List | Glossary On
Versions: 1 2 3 4 5 6 7 8 9 10 11 12 13 14 15 16 17 18 19 20 21 22 23 24 25
000
FTUS42 KMLB 190520
TAFMCO
TAF
KMCO 190520Z 1906/2012 VRB03KT P6SM FEW018
      TEMPO 1910/1912 5SM BR
     FM191500 11010KT P6SM SCT035
     FM200000 09007KT P6SM FEW050=

USA.gov is the U.S. government's official web portal to all federal, state and local government web resources and services.